sensor_id;sensor_type;location;lat;lon;timestamp;P1;durP1;ratioP1;P2;durP2;ratioP2
11344;SDS011;5727;42.600;23.028;2023-12-04T00:00:36;11.20;;;8.43;;
11344;SDS011;5727;42.600;23.028;2023-12-04T00:03:04;9.30;;;8.40;;
11344;SDS011;5727;42.600;23.028;2023-12-04T00:05:31;10.03;;;8.63;;
11344;SDS011;5727;42.600;23.028;2023-12-04T00:07:58;9.97;;;9.00;;
11344;SDS011;5727;42.600;23.028;2023-12-04T00:10:25;9.97;;;8.93;;
11344;SDS011;5727;42.600;23.028;2023-12-04T00:12:53;10.07;;;9.00;;
11344;SDS011;5727;42.600;23.028;2023-12-04T00:15:20;11.47;;;9.30;;
11344;SDS011;5727;42.600;23.028;2023-12-04T00:17:47;9.00;;;8.20;;
11344;SDS011;5727;42.600;23.028;2023-12-04T00:20:14;10.70;;;8.97;;
11344;SDS011;5727;42.600;23.028;2023-12-04T00:22:41;11.33;;;9.33;;
11344;SDS011;5727;42.600;23.028;2023-12-04T00:25:08;9.83;;;8.77;;
11344;SDS011;5727;42.600;23.028;2023-12-04T00:27:35;10.30;;;9.00;;
11344;SDS011;5727;42.600;23.028;2023-12-04T00:30:04;8.73;;;7.93;;
11344;SDS011;5727;42.600;23.028;2023-12-04T00:32:32;8.80;;;7.90;;
11344;SDS011;5727;42.600;23.028;2023-12-04T00:34:59;8.97;;;8.07;;
11344;SDS011;5727;42.600;23.028;2023-12-04T00:37:26;8.53;;;7.83;;
11344;SDS011;5727;42.600;23.028;2023-12-04T00:39:53;8.80;;;7.97;;
11344;SDS011;5727;42.600;23.028;2023-12-04T00:42:20;9.13;;;8.03;;
11344;SDS011;5727;42.600;23.028;2023-12-04T00:44:47;9.27;;;8.27;;
11344;SDS011;5727;42.600;23.028;2023-12-04T00:47:16;8.97;;;8.13;;
11344;SDS011;5727;42.600;23.028;2023-12-04T00:49:43;10.30;;;8.53;;
11344;SDS011;5727;42.600;23.028;2023-12-04T00:52:10;8.47;;;7.77;;
11344;SDS011;5727;42.600;23.028;2023-12-04T00:54:38;8.40;;;7.70;;
11344;SDS011;5727;42.600;23.028;2023-12-04T00:57:06;9.47;;;8.43;;
11344;SDS011;5727;42.600;23.028;2023-12-04T00:59:33;11.10;;;9.40;;
11344;SDS011;5727;42.600;23.028;2023-12-04T01:02:00;9.43;;;8.53;;
11344;SDS011;5727;42.600;23.028;2023-12-04T01:04:28;9.27;;;8.30;;
11344;SDS011;5727;42.600;23.028;2023-12-04T01:06:55;9.30;;;8.23;;
11344;SDS011;5727;42.600;23.028;2023-12-04T01:09:22;10.33;;;8.27;;
11344;SDS011;5727;42.600;23.028;2023-12-04T01:11:49;11.60;;;8.50;;
11344;SDS011;5727;42.600;23.028;2023-12-04T01:14:16;9.23;;;8.20;;
11344;SDS011;5727;42.600;23.028;2023-12-04T01:16:43;9.30;;;8.40;;
11344;SDS011;5727;42.600;23.028;2023-12-04T01:19:10;9.47;;;8.00;;
11344;SDS011;5727;42.600;23.028;2023-12-04T01:21:39;8.90;;;7.73;;
11344;SDS011;5727;42.600;23.028;2023-12-04T01:24:06;9.23;;;8.30;;
11344;SDS011;5727;42.600;23.028;2023-12-04T01:26:33;10.17;;;9.13;;
11344;SDS011;5727;42.600;23.028;2023-12-04T01:29:00;9.47;;;8.57;;
11344;SDS011;5727;42.600;23.028;2023-12-04T01:31:27;8.47;;;7.70;;
11344;SDS011;5727;42.600;23.028;2023-12-04T01:33:53;9.10;;;8.10;;
11344;SDS011;5727;42.600;23.028;2023-12-04T01:36:20;10.80;;;9.47;;
11344;SDS011;5727;42.600;23.028;2023-12-04T01:38:49;9.33;;;8.23;;
11344;SDS011;5727;42.600;23.028;2023-12-04T01:41:16;9.80;;;8.80;;
11344;SDS011;5727;42.600;23.028;2023-12-04T01:43:43;10.17;;;9.20;;
11344;SDS011;5727;42.600;23.028;2023-12-04T01:46:10;9.97;;;8.93;;
11344;SDS011;5727;42.600;23.028;2023-12-04T01:48:37;9.67;;;8.67;;
11344;SDS011;5727;42.600;23.028;2023-12-04T01:51:05;9.73;;;8.70;;
11344;SDS011;5727;42.600;23.028;2023-12-04T01:53:35;10.63;;;8.63;;
11344;SDS011;5727;42.600;23.028;2023-12-04T01:56:07;8.83;;;8.03;;
11344;SDS011;5727;42.600;23.028;2023-12-04T01:58:35;8.27;;;7.50;;
11344;SDS011;5727;42.600;23.028;2023-12-04T02:01:03;8.97;;;8.07;;
11344;SDS011;5727;42.600;23.028;2023-12-04T02:03:31;9.00;;;8.10;;
11344;SDS011;5727;42.600;23.028;2023-12-04T02:05:59;8.70;;;7.90;;
11344;SDS011;5727;42.600;23.028;2023-12-04T02:08:27;8.07;;;7.27;;
11344;SDS011;5727;42.600;23.028;2023-12-04T02:10:55;8.83;;;7.87;;
11344;SDS011;5727;42.600;23.028;2023-12-04T02:13:23;8.77;;;7.90;;
11344;SDS011;5727;42.600;23.028;2023-12-04T02:15:51;9.20;;;8.30;;
11344;SDS011;5727;42.600;23.028;2023-12-04T02:18:21;9.53;;;8.43;;
11344;SDS011;5727;42.600;23.028;2023-12-04T02:20:48;8.30;;;7.50;;
11344;SDS011;5727;42.600;23.028;2023-12-04T02:23:15;10.83;;;7.37;;
11344;SDS011;5727;42.600;23.028;2023-12-04T02:25:43;8.40;;;7.50;;
11344;SDS011;5727;42.600;23.028;2023-12-04T02:28:11;8.83;;;7.80;;
11344;SDS011;5727;42.600;23.028;2023-12-04T02:30:43;8.30;;;7.50;;
11344;SDS011;5727;42.600;23.028;2023-12-04T02:33:10;7.67;;;6.87;;
11344;SDS011;5727;42.600;23.028;2023-12-04T02:35:39;7.87;;;7.07;;
11344;SDS011;5727;42.600;23.028;2023-12-04T02:38:09;7.60;;;6.93;;
11344;SDS011;5727;42.600;23.028;2023-12-04T02:40:36;8.07;;;7.20;;
11344;SDS011;5727;42.600;23.028;2023-12-04T02:43:05;7.53;;;6.90;;
11344;SDS011;5727;42.600;23.028;2023-12-04T02:45:32;7.03;;;6.43;;
11344;SDS011;5727;42.600;23.028;2023-12-04T02:47:59;7.63;;;6.93;;
11344;SDS011;5727;42.600;23.028;2023-12-04T02:50:26;7.17;;;6.57;;
11344;SDS011;5727;42.600;23.028;2023-12-04T02:52:53;8.23;;;7.43;;
11344;SDS011;5727;42.600;23.028;2023-12-04T02:55:20;7.60;;;6.77;;
11344;SDS011;5727;42.600;23.028;2023-12-04T02:57:47;7.80;;;7.00;;
11344;SDS011;5727;42.600;23.028;2023-12-04T03:00:15;7.63;;;6.93;;
11344;SDS011;5727;42.600;23.028;2023-12-04T03:02:43;7.83;;;7.13;;
11344;SDS011;5727;42.600;23.028;2023-12-04T03:05:10;8.53;;;7.57;;
11344;SDS011;5727;42.600;23.028;2023-12-04T03:07:36;8.23;;;7.43;;
11344;SDS011;5727;42.600;23.028;2023-12-04T03:10:04;8.40;;;7.57;;
11344;SDS011;5727;42.600;23.028;2023-12-04T03:12:31;7.13;;;6.43;;
11344;SDS011;5727;42.600;23.028;2023-12-04T03:14:58;8.57;;;7.77;;
11344;SDS011;5727;42.600;23.028;2023-12-04T03:17:27;8.53;;;7.73;;
11344;SDS011;5727;42.600;23.028;2023-12-04T03:19:54;9.07;;;8.17;;
11344;SDS011;5727;42.600;23.028;2023-12-04T03:22:20;8.60;;;7.70;;
11344;SDS011;5727;42.600;23.028;2023-12-04T03:24:47;9.07;;;8.17;;
11344;SDS011;5727;42.600;23.028;2023-12-04T03:27:14;7.87;;;7.17;;
11344;SDS011;5727;42.600;23.028;2023-12-04T03:29:41;7.00;;;6.40;;
11344;SDS011;5727;42.600;23.028;2023-12-04T03:32:08;7.70;;;7.00;;
11344;SDS011;5727;42.600;23.028;2023-12-04T03:34:36;9.33;;;7.40;;
11344;SDS011;5727;42.600;23.028;2023-12-04T03:37:03;8.47;;;7.53;;
11344;SDS011;5727;42.600;23.028;2023-12-04T03:39:30;7.30;;;6.63;;
11344;SDS011;5727;42.600;23.028;2023-12-04T03:41:57;7.23;;;6.57;;
11344;SDS011;5727;42.600;23.028;2023-12-04T03:44:24;8.37;;;7.57;;
11344;SDS011;5727;42.600;23.028;2023-12-04T03:46:51;8.43;;;7.47;;
11344;SDS011;5727;42.600;23.028;2023-12-04T03:49:18;8.67;;;7.87;;
11344;SDS011;5727;42.600;23.028;2023-12-04T03:51:46;9.67;;;8.17;;
11344;SDS011;5727;42.600;23.028;2023-12-04T03:54:13;9.20;;;7.70;;
11344;SDS011;5727;42.600;23.028;2023-12-04T03:56:40;9.03;;;8.13;;
11344;SDS011;5727;42.600;23.028;2023-12-04T03:59:08;8.33;;;7.53;;
11344;SDS011;5727;42.600;23.028;2023-12-04T04:01:35;8.93;;;8.00;;
11344;SDS011;5727;42.600;23.028;2023-12-04T04:04:02;9.60;;;7.80;;
11344;SDS011;5727;42.600;23.028;2023-12-04T04:06:29;8.33;;;7.63;;
11344;SDS011;5727;42.600;23.028;2023-12-04T04:08:57;7.60;;;6.90;;
11344;SDS011;5727;42.600;23.028;2023-12-04T04:11:24;8.53;;;7.83;;
11344;SDS011;5727;42.600;23.028;2023-12-04T04:13:51;8.10;;;7.30;;
11344;SDS011;5727;42.600;23.028;2023-12-04T04:16:18;8.67;;;7.67;;
11344;SDS011;5727;42.600;23.028;2023-12-04T04:18:45;8.60;;;7.80;;
11344;SDS011;5727;42.600;23.028;2023-12-04T04:21:12;7.90;;;7.20;;
11344;SDS011;5727;42.600;23.028;2023-12-04T04:23:39;8.43;;;7.57;;
11344;SDS011;5727;42.600;23.028;2023-12-04T04:26:07;8.03;;;7.23;;
11344;SDS011;5727;42.600;23.028;2023-12-04T04:28:34;8.37;;;7.57;;
11344;SDS011;5727;42.600;23.028;2023-12-04T04:31:01;8.67;;;7.87;;
11344;SDS011;5727;42.600;23.028;2023-12-04T04:33:28;10.47;;;8.10;;
11344;SDS011;5727;42.600;23.028;2023-12-04T04:35:55;7.93;;;7.13;;
11344;SDS011;5727;42.600;23.028;2023-12-04T04:38:22;8.37;;;7.43;;
11344;SDS011;5727;42.600;23.028;2023-12-04T04:40:49;9.07;;;8.13;;
11344;SDS011;5727;42.600;23.028;2023-12-04T04:43:19;8.07;;;7.37;;
11344;SDS011;5727;42.600;23.028;2023-12-04T04:45:46;8.20;;;7.40;;
11344;SDS011;5727;42.600;23.028;2023-12-04T04:48:13;8.70;;;7.90;;
11344;SDS011;5727;42.600;23.028;2023-12-04T04:50:40;8.90;;;8.10;;
11344;SDS011;5727;42.600;23.028;2023-12-04T04:53:07;9.20;;;8.30;;
11344;SDS011;5727;42.600;23.028;2023-12-04T04:55:34;8.63;;;7.83;;
11344;SDS011;5727;42.600;23.028;2023-12-04T04:58:01;8.73;;;7.93;;
11344;SDS011;5727;42.600;23.028;2023-12-04T05:00:29;9.00;;;8.03;;
11344;SDS011;5727;42.600;23.028;2023-12-04T05:02:56;8.97;;;8.13;;
11344;SDS011;5727;42.600;23.028;2023-12-04T05:05:23;9.07;;;8.33;;
11344;SDS011;5727;42.600;23.028;2023-12-04T05:07:50;10.00;;;8.93;;
11344;SDS011;5727;42.600;23.028;2023-12-04T05:10:17;9.77;;;8.13;;
11344;SDS011;5727;42.600;23.028;2023-12-04T05:12:44;9.70;;;8.70;;
11344;SDS011;5727;42.600;23.028;2023-12-04T05:15:11;10.07;;;9.03;;
11344;SDS011;5727;42.600;23.028;2023-12-04T05:17:40;10.87;;;8.90;;
11344;SDS011;5727;42.600;23.028;2023-12-04T05:20:07;9.57;;;8.57;;
11344;SDS011;5727;42.600;23.028;2023-12-04T05:22:35;9.03;;;8.33;;
11344;SDS011;5727;42.600;23.028;2023-12-04T05:25:02;10.10;;;9.10;;
11344;SDS011;5727;42.600;23.028;2023-12-04T05:27:29;9.87;;;8.87;;
11344;SDS011;5727;42.600;23.028;2023-12-04T05:29:56;11.40;;;9.60;;
11344;SDS011;5727;42.600;23.028;2023-12-04T05:32:23;12.77;;;9.73;;
11344;SDS011;5727;42.600;23.028;2023-12-04T05:34:51;10.70;;;9.50;;
11344;SDS011;5727;42.600;23.028;2023-12-04T05:37:18;11.13;;;9.93;;
11344;SDS011;5727;42.600;23.028;2023-12-04T05:39:45;13.90;;;10.90;;
11344;SDS011;5727;42.600;23.028;2023-12-04T05:42:12;13.03;;;9.97;;
11344;SDS011;5727;42.600;23.028;2023-12-04T05:44:39;10.93;;;9.83;;
11344;SDS011;5727;42.600;23.028;2023-12-04T05:47:06;15.80;;;11.90;;
11344;SDS011;5727;42.600;23.028;2023-12-04T05:49:33;11.43;;;10.20;;
11344;SDS011;5727;42.600;23.028;2023-12-04T05:52:02;13.30;;;10.40;;
11344;SDS011;5727;42.600;23.028;2023-12-04T05:54:29;15.00;;;12.47;;
11344;SDS011;5727;42.600;23.028;2023-12-04T05:56:56;14.20;;;11.03;;
11344;SDS011;5727;42.600;23.028;2023-12-04T05:59:23;16.30;;;12.60;;
11344;SDS011;5727;42.600;23.028;2023-12-04T06:01:50;21.97;;;14.10;;
11344;SDS011;5727;42.600;23.028;2023-12-04T06:04:17;17.87;;;12.87;;
11344;SDS011;5727;42.600;23.028;2023-12-04T06:06:44;13.47;;;11.03;;
11344;SDS011;5727;42.600;23.028;2023-12-04T06:09:12;11.87;;;10.67;;
11344;SDS011;5727;42.600;23.028;2023-12-04T06:11:41;13.97;;;11.07;;
11344;SDS011;5727;42.600;23.028;2023-12-04T06:14:08;10.93;;;9.83;;
11344;SDS011;5727;42.600;23.028;2023-12-04T06:16:36;10.93;;;9.93;;
11344;SDS011;5727;42.600;23.028;2023-12-04T06:19:03;11.33;;;9.77;;
11344;SDS011;5727;42.600;23.028;2023-12-04T06:21:30;11.47;;;10.07;;
11344;SDS011;5727;42.600;23.028;2023-12-04T06:23:57;12.17;;;10.30;;
11344;SDS011;5727;42.600;23.028;2023-12-04T06:26:26;12.47;;;10.67;;
11344;SDS011;5727;42.600;23.028;2023-12-04T06:28:54;11.67;;;10.17;;
11344;SDS011;5727;42.600;23.028;2023-12-04T06:31:22;14.97;;;10.77;;
11344;SDS011;5727;42.600;23.028;2023-12-04T06:33:49;15.83;;;11.83;;
11344;SDS011;5727;42.600;23.028;2023-12-04T06:36:17;16.37;;;12.87;;
11344;SDS011;5727;42.600;23.028;2023-12-04T06:38:45;13.10;;;11.00;;
11344;SDS011;5727;42.600;23.028;2023-12-04T06:41:14;13.30;;;10.80;;
11344;SDS011;5727;42.600;23.028;2023-12-04T06:43:44;12.50;;;10.93;;
11344;SDS011;5727;42.600;23.028;2023-12-04T06:46:11;13.50;;;11.00;;
11344;SDS011;5727;42.600;23.028;2023-12-04T06:48:41;14.40;;;11.70;;
11344;SDS011;5727;42.600;23.028;2023-12-04T06:51:09;13.70;;;11.23;;
11344;SDS011;5727;42.600;23.028;2023-12-04T06:53:36;11.53;;;10.43;;
11344;SDS011;5727;42.600;23.028;2023-12-04T06:56:04;13.57;;;11.13;;
11344;SDS011;5727;42.600;23.028;2023-12-04T06:58:31;15.43;;;12.30;;
11344;SDS011;5727;42.600;23.028;2023-12-04T07:01:00;16.67;;;11.73;;
11344;SDS011;5727;42.600;23.028;2023-12-04T07:03:27;13.47;;;11.60;;
11344;SDS011;5727;42.600;23.028;2023-12-04T07:05:54;8.83;;;7.93;;
11344;SDS011;5727;42.600;23.028;2023-12-04T07:08:21;9.40;;;8.43;;
11344;SDS011;5727;42.600;23.028;2023-12-04T07:10:48;12.73;;;9.27;;
11344;SDS011;5727;42.600;23.028;2023-12-04T07:13:15;10.10;;;9.10;;
11344;SDS011;5727;42.600;23.028;2023-12-04T07:15:42;10.63;;;9.30;;
11344;SDS011;5727;42.600;23.028;2023-12-04T07:18:10;10.77;;;9.43;;
11344;SDS011;5727;42.600;23.028;2023-12-04T07:20:37;12.50;;;10.87;;
11344;SDS011;5727;42.600;23.028;2023-12-04T07:23:04;14.77;;;11.67;;
11344;SDS011;5727;42.600;23.028;2023-12-04T07:25:31;11.20;;;10.10;;
11344;SDS011;5727;42.600;23.028;2023-12-04T07:27:58;14.23;;;12.73;;
11344;SDS011;5727;42.600;23.028;2023-12-04T07:30:25;38.27;;;26.90;;
11344;SDS011;5727;42.600;23.028;2023-12-04T07:32:52;17.93;;;13.70;;
11344;SDS011;5727;42.600;23.028;2023-12-04T07:35:21;18.03;;;13.43;;
11344;SDS011;5727;42.600;23.028;2023-12-04T07:37:48;10.30;;;9.13;;
11344;SDS011;5727;42.600;23.028;2023-12-04T07:40:15;14.60;;;10.17;;
11344;SDS011;5727;42.600;23.028;2023-12-04T07:42:42;11.90;;;10.67;;
11344;SDS011;5727;42.600;23.028;2023-12-04T07:45:09;13.70;;;11.10;;
11344;SDS011;5727;42.600;23.028;2023-12-04T07:47:37;10.30;;;8.93;;
11344;SDS011;5727;42.600;23.028;2023-12-04T07:50:04;10.40;;;9.27;;
11344;SDS011;5727;42.600;23.028;2023-12-04T07:52:33;11.40;;;9.30;;
11344;SDS011;5727;42.600;23.028;2023-12-04T07:55:00;9.63;;;8.63;;
11344;SDS011;5727;42.600;23.028;2023-12-04T07:57:27;10.83;;;9.50;;
11344;SDS011;5727;42.600;23.028;2023-12-04T07:59:54;21.67;;;14.80;;
11344;SDS011;5727;42.600;23.028;2023-12-04T08:02:21;13.20;;;11.70;;
11344;SDS011;5727;42.600;23.028;2023-12-04T08:04:48;9.97;;;8.93;;
11344;SDS011;5727;42.600;23.028;2023-12-04T08:07:15;10.80;;;9.20;;
11344;SDS011;5727;42.600;23.028;2023-12-04T08:09:45;9.60;;;8.60;;
11344;SDS011;5727;42.600;23.028;2023-12-04T08:12:12;7.73;;;7.10;;
11344;SDS011;5727;42.600;23.028;2023-12-04T08:14:39;8.67;;;7.17;;
11344;SDS011;5727;42.600;23.028;2023-12-04T08:17:06;8.03;;;7.37;;
11344;SDS011;5727;42.600;23.028;2023-12-04T08:19:33;7.97;;;7.27;;
11344;SDS011;5727;42.600;23.028;2023-12-04T08:22:00;9.33;;;8.30;;
11344;SDS011;5727;42.600;23.028;2023-12-04T08:24:27;9.83;;;7.73;;
11344;SDS011;5727;42.600;23.028;2023-12-04T08:26:56;8.13;;;7.37;;
11344;SDS011;5727;42.600;23.028;2023-12-04T08:29:23;8.33;;;7.53;;
11344;SDS011;5727;42.600;23.028;2023-12-04T08:31:50;7.90;;;6.93;;
11344;SDS011;5727;42.600;23.028;2023-12-04T08:34:17;8.93;;;8.03;;
11344;SDS011;5727;42.600;23.028;2023-12-04T08:36:44;7.87;;;7.07;;
11344;SDS011;5727;42.600;23.028;2023-12-04T08:39:11;8.30;;;7.13;;
11344;SDS011;5727;42.600;23.028;2023-12-04T08:41:38;8.73;;;7.00;;
11344;SDS011;5727;42.600;23.028;2023-12-04T08:44:06;7.30;;;6.70;;
11344;SDS011;5727;42.600;23.028;2023-12-04T08:46:34;8.30;;;7.03;;
11344;SDS011;5727;42.600;23.028;2023-12-04T08:49:01;6.90;;;6.40;;
11344;SDS011;5727;42.600;23.028;2023-12-04T08:51:28;6.00;;;5.47;;
11344;SDS011;5727;42.600;23.028;2023-12-04T08:53:55;6.20;;;5.70;;
11344;SDS011;5727;42.600;23.028;2023-12-04T08:56:22;7.70;;;7.10;;
11344;SDS011;5727;42.600;23.028;2023-12-04T08:58:49;7.93;;;7.17;;
11344;SDS011;5727;42.600;23.028;2023-12-04T09:01:18;7.50;;;6.80;;
11344;SDS011;5727;42.600;23.028;2023-12-04T09:03:45;7.87;;;6.97;;
11344;SDS011;5727;42.600;23.028;2023-12-04T09:06:12;6.97;;;6.30;;
11344;SDS011;5727;42.600;23.028;2023-12-04T09:08:40;7.53;;;6.70;;
11344;SDS011;5727;42.600;23.028;2023-12-04T09:11:07;7.00;;;6.30;;
11344;SDS011;5727;42.600;23.028;2023-12-04T09:13:34;6.40;;;5.90;;
11344;SDS011;5727;42.600;23.028;2023-12-04T09:16:01;6.23;;;5.73;;
11344;SDS011;5727;42.600;23.028;2023-12-04T09:18:30;6.13;;;5.73;;
11344;SDS011;5727;42.600;23.028;2023-12-04T09:20:57;6.90;;;6.23;;
11344;SDS011;5727;42.600;23.028;2023-12-04T09:23:23;6.17;;;5.67;;
11344;SDS011;5727;42.600;23.028;2023-12-04T09:25:50;6.07;;;5.60;;
11344;SDS011;5727;42.600;23.028;2023-12-04T09:28:17;6.10;;;5.60;;
11344;SDS011;5727;42.600;23.028;2023-12-04T09:30:44;7.87;;;7.00;;
11344;SDS011;5727;42.600;23.028;2023-12-04T09:33:11;7.47;;;6.73;;
11344;SDS011;5727;42.600;23.028;2023-12-04T09:35:40;6.20;;;5.60;;
11344;SDS011;5727;42.600;23.028;2023-12-04T09:38:07;6.40;;;5.90;;
11344;SDS011;5727;42.600;23.028;2023-12-04T09:40:34;5.90;;;5.50;;
11344;SDS011;5727;42.600;23.028;2023-12-04T09:43:02;5.67;;;5.23;;
11344;SDS011;5727;42.600;23.028;2023-12-04T09:45:29;6.90;;;5.00;;
11344;SDS011;5727;42.600;23.028;2023-12-04T09:47:59;5.97;;;5.47;;
11344;SDS011;5727;42.600;23.028;2023-12-04T09:50:26;5.53;;;5.10;;
11344;SDS011;5727;42.600;23.028;2023-12-04T09:52:54;5.90;;;5.50;;
11344;SDS011;5727;42.600;23.028;2023-12-04T09:55:23;5.90;;;5.30;;
11344;SDS011;5727;42.600;23.028;2023-12-04T09:57:51;6.00;;;5.50;;
11344;SDS011;5727;42.600;23.028;2023-12-04T10:00:22;5.23;;;4.83;;
11344;SDS011;5727;42.600;23.028;2023-12-04T10:02:52;5.77;;;5.30;;
11344;SDS011;5727;42.600;23.028;2023-12-04T10:05:19;5.70;;;5.27;;
11344;SDS011;5727;42.600;23.028;2023-12-04T10:07:46;5.57;;;5.07;;
11344;SDS011;5727;42.600;23.028;2023-12-04T10:10:15;10.93;;;4.77;;
11344;SDS011;5727;42.600;23.028;2023-12-04T10:12:42;4.90;;;4.50;;
11344;SDS011;5727;42.600;23.028;2023-12-04T10:15:11;5.20;;;4.60;;
11344;SDS011;5727;42.600;23.028;2023-12-04T10:17:38;5.07;;;4.67;;
11344;SDS011;5727;42.600;23.028;2023-12-04T10:20:07;5.23;;;4.73;;
11344;SDS011;5727;42.600;23.028;2023-12-04T10:22:38;5.00;;;4.53;;
11344;SDS011;5727;42.600;23.028;2023-12-04T10:25:16;4.80;;;4.50;;
11344;SDS011;5727;42.600;23.028;2023-12-04T10:27:44;4.70;;;4.40;;
11344;SDS011;5727;42.600;23.028;2023-12-04T10:30:21;5.43;;;5.03;;
11344;SDS011;5727;42.600;23.028;2023-12-04T10:32:52;5.00;;;4.67;;
11344;SDS011;5727;42.600;23.028;2023-12-04T10:35:21;5.40;;;5.00;;
11344;SDS011;5727;42.600;23.028;2023-12-04T10:37:49;4.80;;;4.50;;
11344;SDS011;5727;42.600;23.028;2023-12-04T10:40:25;4.13;;;3.83;;
11344;SDS011;5727;42.600;23.028;2023-12-04T10:43:09;4.60;;;4.30;;
11344;SDS011;5727;42.600;23.028;2023-12-04T10:45:38;4.73;;;4.33;;
11344;SDS011;5727;42.600;23.028;2023-12-04T10:48:06;4.77;;;4.37;;
11344;SDS011;5727;42.600;23.028;2023-12-04T10:50:34;11.97;;;4.97;;
11344;SDS011;5727;42.600;23.028;2023-12-04T10:53:03;6.00;;;5.50;;
11344;SDS011;5727;42.600;23.028;2023-12-04T10:55:31;4.53;;;4.20;;
11344;SDS011;5727;42.600;23.028;2023-12-04T10:57:59;5.23;;;4.87;;
11344;SDS011;5727;42.600;23.028;2023-12-04T11:00:29;5.07;;;4.67;;
11344;SDS011;5727;42.600;23.028;2023-12-04T11:03:02;6.70;;;5.37;;
11344;SDS011;5727;42.600;23.028;2023-12-04T11:05:31;6.40;;;5.80;;
11344;SDS011;5727;42.600;23.028;2023-12-04T11:08:01;5.20;;;4.80;;
11344;SDS011;5727;42.600;23.028;2023-12-04T11:10:31;4.83;;;4.33;;
11344;SDS011;5727;42.600;23.028;2023-12-04T11:13:14;4.90;;;4.50;;
11344;SDS011;5727;42.600;23.028;2023-12-04T11:15:47;4.30;;;4.00;;
11344;SDS011;5727;42.600;23.028;2023-12-04T11:18:16;4.50;;;4.10;;
11344;SDS011;5727;42.600;23.028;2023-12-04T11:20:48;4.33;;;3.97;;
11344;SDS011;5727;42.600;23.028;2023-12-04T11:23:21;4.43;;;4.07;;
11344;SDS011;5727;42.600;23.028;2023-12-04T11:25:50;4.90;;;4.50;;
11344;SDS011;5727;42.600;23.028;2023-12-04T11:28:18;4.60;;;4.27;;
11344;SDS011;5727;42.600;23.028;2023-12-04T11:30:45;5.30;;;4.90;;
11344;SDS011;5727;42.600;23.028;2023-12-04T11:33:15;5.20;;;4.70;;
11344;SDS011;5727;42.600;23.028;2023-12-04T11:35:42;4.83;;;4.43;;
11344;SDS011;5727;42.600;23.028;2023-12-04T11:38:12;5.43;;;4.93;;
11344;SDS011;5727;42.600;23.028;2023-12-04T11:40:41;5.63;;;5.00;;
11344;SDS011;5727;42.600;23.028;2023-12-04T11:46:09;5.00;;;4.60;;
11344;SDS011;5727;42.600;23.028;2023-12-04T11:48:37;5.23;;;4.80;;
11344;SDS011;5727;42.600;23.028;2023-12-04T11:51:05;5.00;;;4.60;;
11344;SDS011;5727;42.600;23.028;2023-12-04T11:53:36;4.83;;;4.50;;
11344;SDS011;5727;42.600;23.028;2023-12-04T11:56:08;5.80;;;4.87;;
11344;SDS011;5727;42.600;23.028;2023-12-04T11:58:43;5.33;;;4.93;;
11344;SDS011;5727;42.600;23.028;2023-12-04T12:01:10;6.20;;;5.47;;
11344;SDS011;5727;42.600;23.028;2023-12-04T12:03:37;5.87;;;5.27;;
11344;SDS011;5727;42.600;23.028;2023-12-04T12:06:05;5.67;;;5.20;;
11344;SDS011;5727;42.600;23.028;2023-12-04T12:08:32;5.40;;;4.90;;
11344;SDS011;5727;42.600;23.028;2023-12-04T12:10:59;6.07;;;5.57;;
11344;SDS011;5727;42.600;23.028;2023-12-04T12:13:29;5.70;;;5.20;;
11344;SDS011;5727;42.600;23.028;2023-12-04T12:15:57;5.90;;;5.40;;
11344;SDS011;5727;42.600;23.028;2023-12-04T12:18:24;6.20;;;5.50;;
11344;SDS011;5727;42.600;23.028;2023-12-04T12:20:54;6.73;;;6.03;;
11344;SDS011;5727;42.600;23.028;2023-12-04T12:23:21;5.77;;;5.23;;
11344;SDS011;5727;42.600;23.028;2023-12-04T12:25:48;7.10;;;6.30;;
11344;SDS011;5727;42.600;23.028;2023-12-04T12:28:15;6.30;;;5.70;;
11344;SDS011;5727;42.600;23.028;2023-12-04T12:30:42;5.73;;;5.23;;
11344;SDS011;5727;42.600;23.028;2023-12-04T12:33:14;6.80;;;6.10;;
11344;SDS011;5727;42.600;23.028;2023-12-04T12:35:41;6.80;;;5.17;;
11344;SDS011;5727;42.600;23.028;2023-12-04T12:38:08;7.60;;;6.70;;
11344;SDS011;5727;42.600;23.028;2023-12-04T12:40:35;7.70;;;6.27;;
11344;SDS011;5727;42.600;23.028;2023-12-04T12:43:03;8.17;;;5.77;;
11344;SDS011;5727;42.600;23.028;2023-12-04T12:45:38;6.20;;;5.60;;
11344;SDS011;5727;42.600;23.028;2023-12-04T12:48:05;9.47;;;6.90;;
11344;SDS011;5727;42.600;23.028;2023-12-04T12:50:37;7.50;;;6.70;;
11344;SDS011;5727;42.600;23.028;2023-12-04T12:53:04;8.50;;;6.03;;
11344;SDS011;5727;42.600;23.028;2023-12-04T12:55:31;7.73;;;6.10;;
11344;SDS011;5727;42.600;23.028;2023-12-04T12:57:58;9.93;;;6.83;;
11344;SDS011;5727;42.600;23.028;2023-12-04T13:00:26;9.83;;;5.93;;
11344;SDS011;5727;42.600;23.028;2023-12-04T13:02:54;10.37;;;6.33;;
11344;SDS011;5727;42.600;23.028;2023-12-04T13:05:20;12.87;;;8.80;;
11344;SDS011;5727;42.600;23.028;2023-12-04T13:07:49;14.03;;;9.37;;
11344;SDS011;5727;42.600;23.028;2023-12-04T13:10:16;12.23;;;8.73;;
11344;SDS011;5727;42.600;23.028;2023-12-04T13:12:43;10.00;;;7.93;;
11344;SDS011;5727;42.600;23.028;2023-12-04T13:15:10;11.00;;;7.70;;
11344;SDS011;5727;42.600;23.028;2023-12-04T13:17:37;10.87;;;7.40;;
11344;SDS011;5727;42.600;23.028;2023-12-04T13:20:04;10.07;;;7.57;;
11344;SDS011;5727;42.600;23.028;2023-12-04T13:22:36;9.53;;;7.17;;
11344;SDS011;5727;42.600;23.028;2023-12-04T13:25:05;11.33;;;6.87;;
11344;SDS011;5727;42.600;23.028;2023-12-04T13:27:35;5.27;;;4.13;;
11344;SDS011;5727;42.600;23.028;2023-12-04T13:30:04;7.77;;;4.37;;
11344;SDS011;5727;42.600;23.028;2023-12-04T13:32:31;7.97;;;5.20;;
11344;SDS011;5727;42.600;23.028;2023-12-04T13:34:59;6.17;;;4.67;;
11344;SDS011;5727;42.600;23.028;2023-12-04T13:37:26;6.13;;;5.03;;
11344;SDS011;5727;42.600;23.028;2023-12-04T13:39:53;10.33;;;9.07;;
11344;SDS011;5727;42.600;23.028;2023-12-04T13:42:24;12.93;;;7.80;;
11344;SDS011;5727;42.600;23.028;2023-12-04T13:45:09;10.03;;;6.93;;
11344;SDS011;5727;42.600;23.028;2023-12-04T13:47:37;10.87;;;7.00;;
11344;SDS011;5727;42.600;23.028;2023-12-04T13:50:05;11.50;;;8.57;;
11344;SDS011;5727;42.600;23.028;2023-12-04T13:52:34;11.50;;;10.03;;
11344;SDS011;5727;42.600;23.028;2023-12-04T13:55:01;13.43;;;10.37;;
11344;SDS011;5727;42.600;23.028;2023-12-04T13:57:38;21.50;;;13.30;;
11344;SDS011;5727;42.600;23.028;2023-12-04T14:00:21;32.37;;;19.37;;
11344;SDS011;5727;42.600;23.028;2023-12-04T14:02:48;23.00;;;14.00;;
11344;SDS011;5727;42.600;23.028;2023-12-04T14:05:18;17.27;;;12.63;;
11344;SDS011;5727;42.600;23.028;2023-12-04T14:07:47;19.77;;;12.67;;
11344;SDS011;5727;42.600;23.028;2023-12-04T14:10:14;16.97;;;12.40;;
11344;SDS011;5727;42.600;23.028;2023-12-04T14:12:42;17.40;;;11.63;;
11344;SDS011;5727;42.600;23.028;2023-12-04T14:15:09;14.67;;;10.40;;
11344;SDS011;5727;42.600;23.028;2023-12-04T14:17:36;21.70;;;12.37;;
11344;SDS011;5727;42.600;23.028;2023-12-04T14:20:05;14.73;;;12.33;;
11344;SDS011;5727;42.600;23.028;2023-12-04T14:22:38;19.30;;;13.03;;
11344;SDS011;5727;42.600;23.028;2023-12-04T14:25:07;15.80;;;11.03;;
11344;SDS011;5727;42.600;23.028;2023-12-04T14:27:35;16.53;;;11.43;;
11344;SDS011;5727;42.600;23.028;2023-12-04T14:30:06;14.67;;;12.60;;
11344;SDS011;5727;42.600;23.028;2023-12-04T14:32:35;18.27;;;12.37;;
11344;SDS011;5727;42.600;23.028;2023-12-04T14:35:02;14.33;;;11.70;;
11344;SDS011;5727;42.600;23.028;2023-12-04T14:37:29;18.60;;;12.30;;
11344;SDS011;5727;42.600;23.028;2023-12-04T14:39:56;23.77;;;16.40;;
11344;SDS011;5727;42.600;23.028;2023-12-04T14:42:23;19.33;;;13.70;;
11344;SDS011;5727;42.600;23.028;2023-12-04T14:44:50;16.27;;;12.30;;
11344;SDS011;5727;42.600;23.028;2023-12-04T14:47:18;16.40;;;13.40;;